INFORMACIÓN METAR y TAF
METAR FOR EDDL
ADDS - METARS form results

(0145 UTC 16 December 2019)
Data provider http://aviationweather.gov/metar/data/
 
METAR text: EDDL 160120Z 16010KT CAVOK 06/04 Q1006 NOSIG
Conditions at: EDDL (DUESSELDORF , DE) observed 0120 UTC 16 December 2019
Temperature: 6.0°C (43°F)
Dewpoint: 4.0°C (39°F) [RH = 87%]
Pressure (altimeter): 29.70 inches Hg (1006.0 mb)
Winds: from the SSE (160 degrees) at 12 MPH (10 knots; 5.1 m/s)
Visibility: 6 or more miles (10+ km)
Ceiling: ceiling and visibility are OK
Clouds: unknown
Weather: no significant weather observed at this time

METAR text: EDDL 160050Z 15009KT CAVOK 06/03 Q1006 NOSIG
Conditions at: EDDL (DUESSELDORF , DE) observed 0050 UTC 16 December 2019
Temperature: 6.0°C (43°F)
Dewpoint: 3.0°C (37°F) [RH = 81%]
Pressure (altimeter): 29.70 inches Hg (1006.0 mb)
Winds: from the SSE (150 degrees) at 10 MPH (9 knots; 4.6 m/s)
Visibility: 6 or more miles (10+ km)
Ceiling: ceiling and visibility are OK
Clouds: unknown
Weather: no significant weather observed at this time

Forecast for: EDDL (DUESSELDORF , DE)
Text: TAF EDDL 152300Z 1600/1706 16010KT 9999 BKN025
Forecast period: 0000 UTC 16 December 2019 to 0600 UTC 17 December 2019
Forecast type: FROM: standard forecast or significant change
Winds: from the SSE (160 degrees) at 12 MPH (10 knots; 5.1 m/s)
Visibility: 6 or more miles 10+ km)
Ceiling: 2500 feet AGL
Clouds: broken clouds at 2500 feet AGL
Weather: no significant weather forecast for this period
Text: PROB30
Forecast period: 0700 to 1300 UTC 16 December 2019
Forecast type: TEMPORARY: The following changes expected for less than half the time period
Visibility: missing
Ceiling: unknown
Clouds: missing
Weather: RA  (moderate rain)

MAPA DE AEROPUERTO

INFORMACIÓN DE PISTA
Pista 05L Longitud 8858 ft Ancho 148 ft
Elevación 116 ft Umbral desplazado 984 ft Rumbo de pista 53
Pista 23R Longitud 8858 ft Ancho 148 ft
Elevación 124 ft Umbral desplazado 984 ft Rumbo de pista 233
Pista 05R Longitud 9842 ft Ancho 148 ft
Elevación 121 ft Umbral desplazado 984 ft Rumbo de pista 53
Pista 23L Longitud 9842 ft Ancho 148 ft
Elevación 138 ft Umbral desplazado 984 ft Rumbo de pista 233

FRECUANCIAS DEL AEROPUERTO
Tipo ACC Nombre LANGEN RAD Frecuencia 128.55 MHZ
Tipo APP Nombre DIR Frecuencia 128.65 MHZ
Tipo ATIS Nombre ATIS Frecuencia 123.775 MHZ
Tipo CLD Nombre CLNC DEL Frecuencia 121.775 MHZ
Tipo GND Nombre GND Frecuencia 121.9 MHZ
Tipo INFO Nombre LANGEN INF Frecuencia 129.875 MHZ
Tipo MISC Nombre DE ICING Frecuencia 135.225 MHZ
Tipo TWR Nombre TWR Frecuencia 118.3 MHZ

RADIO AYUDAS DEL AEROPUERTO
Tipo VOR-DME Nombre Dusseldorf Frecuencia 115150 KHZ